createdAt,value
2023-05-16T00:01:38.381Z,100817.25
2023-05-16T00:04:07.464Z,100814.63
2023-05-16T00:06:36.147Z,100808.56
2023-05-16T00:09:04.472Z,100811.16
2023-05-16T00:11:33.866Z,100808.56
2023-05-16T00:14:02.595Z,100812.09
2023-05-16T00:16:30.966Z,100811.25
2023-05-16T00:19:01.436Z,100813.03
2023-05-16T00:21:29.607Z,100808.69
2023-05-16T00:23:57.818Z,100800.06
2023-05-16T00:26:26.271Z,100798.34
2023-05-16T00:28:56.067Z,100800.09
2023-05-16T00:31:25.145Z,100798.38
2023-05-16T00:33:53.256Z,100799.25
2023-05-16T00:36:23.700Z,100802.72
2023-05-16T00:38:52.119Z,100808.00
2023-05-16T00:41:21.130Z,100805.41
2023-05-16T00:43:49.214Z,100806.28
2023-05-16T00:46:18.552Z,100800.19
2023-05-16T00:48:46.803Z,100798.44
2023-05-16T00:51:15.013Z,100797.59
2023-05-16T00:53:43.338Z,100792.38
2023-05-16T00:56:11.659Z,100800.22
2023-05-16T00:58:39.912Z,100796.78
2023-05-16T01:01:08.177Z,100792.38
2023-05-16T01:03:38.897Z,100784.53
2023-05-16T01:06:07.769Z,100789.75
2023-05-16T01:08:35.821Z,100794.06
2023-05-16T01:11:12.617Z,100789.75
2023-05-16T01:13:49.370Z,100784.53
2023-05-16T01:16:23.566Z,100783.69
2023-05-16T01:19:03.636Z,100784.53
2023-05-16T01:21:46.001Z,100782.81
2023-05-16T01:24:23.582Z,100788.06
2023-05-16T01:26:53.887Z,100788.97
2023-05-16T01:29:22.250Z,100782.91
2023-05-16T01:31:50.349Z,100787.28
2023-05-16T01:34:20.026Z,100791.63
2023-05-16T01:36:57.207Z,100794.25
2023-05-16T01:39:31.687Z,100789.09
2023-05-16T01:42:06.172Z,100783.06
2023-05-16T01:44:38.669Z,100785.69
2023-05-16T01:47:11.490Z,100789.22
2023-05-16T01:49:45.860Z,100784.84
2023-05-16T01:52:20.636Z,100786.59
2023-05-16T01:54:51.257Z,100781.34
2023-05-16T01:57:24.467Z,100782.28
2023-05-16T01:59:52.781Z,100786.63
2023-05-16T02:02:21.193Z,100784.88
2023-05-16T02:04:49.343Z,100787.50
2023-05-16T02:07:17.397Z,100797.09
2023-05-16T02:09:46.761Z,100789.28
2023-05-16T02:12:14.797Z,100783.19
2023-05-16T02:14:44.164Z,100787.56
2023-05-16T02:17:12.810Z,100787.59
2023-05-16T02:19:41.048Z,100791.97
2023-05-16T02:22:09.120Z,100799.81
2023-05-16T02:24:37.502Z,100802.44
2023-05-16T02:27:05.746Z,100799.84
2023-05-16T02:29:34.107Z,100805.94
2023-05-16T02:32:03.497Z,100805.94
2023-05-16T02:34:31.669Z,100798.06
2023-05-16T02:36:59.707Z,100800.69
2023-05-16T02:39:27.826Z,100802.41
2023-05-16T02:41:55.857Z,100797.19
2023-05-16T02:44:24.067Z,100796.34
2023-05-16T02:46:52.217Z,100800.69
2023-05-16T02:49:21.808Z,100795.50
2023-05-16T02:51:49.847Z,100790.31
2023-05-16T02:54:18.151Z,100792.13
2023-05-16T02:56:46.205Z,100794.75
2023-05-16T02:59:14.488Z,100793.03
2023-05-16T03:01:43.099Z,100791.28
2023-05-16T03:04:13.334Z,100783.44
2023-05-16T03:06:43.549Z,100790.34
2023-05-16T03:09:13.225Z,100785.09
2023-05-16T03:11:43.508Z,100791.19
2023-05-16T03:14:15.067Z,100786.84
2023-05-16T03:16:44.106Z,100781.63
2023-05-16T03:19:14.546Z,100788.53
2023-05-16T03:21:44.058Z,100787.69
2023-05-16T03:24:15.843Z,100791.13
2023-05-16T03:26:45.338Z,100792.06
2023-05-16T03:29:13.459Z,100793.81
2023-05-16T03:31:42.367Z,100781.63
2023-05-16T03:34:10.645Z,100778.13
2023-05-16T03:36:40.529Z,100776.38
2023-05-16T03:39:10.300Z,100778.13
2023-05-16T03:41:38.639Z,100779.88
2023-05-16T03:44:06.764Z,100777.22
2023-05-16T03:46:34.986Z,100778.09
2023-05-16T03:49:03.219Z,100777.22
2023-05-16T03:51:31.811Z,100776.38
2023-05-16T03:53:59.910Z,100773.72
2023-05-16T03:56:29.403Z,100765.00
2023-05-16T03:58:58.331Z,100772.88
2023-05-16T04:01:26.511Z,100768.53
2023-05-16T04:03:54.508Z,100771.19
2023-05-16T04:06:24.007Z,100778.13
2023-05-16T04:08:52.930Z,100771.13
2023-05-16T04:11:23.300Z,100780.69
2023-05-16T04:13:54.747Z,100787.63
2023-05-16T04:16:23.163Z,100787.63
2023-05-16T04:18:52.954Z,100785.88
2023-05-16T04:21:21.674Z,100786.78
2023-05-16T04:23:51.618Z,100788.53
2023-05-16T04:26:21.974Z,100784.19
2023-05-16T04:28:51.628Z,100791.16
2023-05-16T04:31:23.620Z,100786.84
2023-05-16T04:33:52.307Z,100795.56
2023-05-16T04:36:20.795Z,100796.47
2023-05-16T04:38:48.892Z,100806.91
2023-05-16T04:41:17.369Z,100806.06
2023-05-16T04:43:45.685Z,100801.72
2023-05-16T04:46:15.558Z,100807.81
2023-05-16T04:48:45.042Z,100803.47
2023-05-16T04:51:13.270Z,100802.56
2023-05-16T04:53:41.342Z,100799.94
2023-05-16T04:56:09.410Z,100803.41
2023-05-16T04:58:37.552Z,100795.56
2023-05-16T05:01:06.014Z,100804.31
2023-05-16T05:03:34.302Z,100795.56
2023-05-16T05:06:03.670Z,100803.38
2023-05-16T05:08:31.828Z,100799.91
2023-05-16T05:10:59.887Z,100812.91
2023-05-16T05:13:28.009Z,100807.63
2023-05-16T05:15:56.432Z,100812.78
2023-05-16T05:18:24.609Z,100812.75
2023-05-16T05:20:53.073Z,100816.16
2023-05-16T05:23:22.479Z,100810.03
2023-05-16T05:25:51.051Z,100815.25
2023-05-16T05:28:19.191Z,100815.25
2023-05-16T05:30:48.385Z,100819.56
2023-05-16T05:33:19.224Z,100827.38
2023-05-16T05:35:47.430Z,100820.38
2023-05-16T05:38:15.409Z,100829.94
2023-05-16T05:40:44.778Z,100829.94
2023-05-16T05:43:12.975Z,100824.59
2023-05-16T05:45:41.227Z,100836.72
2023-05-16T05:48:10.926Z,100834.03
2023-05-16T05:50:39.270Z,100834.78
2023-05-16T05:53:07.573Z,100843.41
2023-05-16T05:55:36.000Z,100847.75
2023-05-16T05:58:07.213Z,100855.56
2023-05-16T06:00:35.751Z,100854.66
2023-05-16T06:03:03.881Z,100848.47
2023-05-16T06:05:32.053Z,100851.03
2023-05-16T06:08:00.210Z,100857.94
2023-05-16T06:10:28.351Z,100849.09
2023-05-16T06:12:56.404Z,100848.09
2023-05-16T06:15:26.487Z,100850.63
2023-05-16T06:17:54.755Z,100853.25
2023-05-16T06:20:23.236Z,100844.50
2023-05-16T06:22:51.249Z,100848.00
2023-05-16T06:25:19.887Z,100844.50
2023-05-16T06:27:47.939Z,100849.72
2023-05-16T06:30:16.196Z,100846.97
2023-05-16T06:32:45.787Z,100857.28
2023-05-16T06:35:13.955Z,100858.97
2023-05-16T06:37:43.138Z,100863.22
2023-05-16T06:40:12.381Z,100863.16
2023-05-16T06:42:40.692Z,100862.25
2023-05-16T06:45:10.440Z,100860.53
2023-05-16T06:47:38.594Z,100868.34
2023-05-16T06:50:10.273Z,100869.16
2023-05-16T06:52:38.454Z,100869.91
2023-05-16T06:55:06.932Z,100868.13
2023-05-16T06:57:35.141Z,100870.63
2023-05-16T07:00:03.384Z,100868.84
2023-05-16T07:02:31.946Z,100875.75
2023-05-16T07:05:00.154Z,100869.63
2023-05-16T07:07:29.703Z,100880.03
2023-05-16T07:09:57.723Z,100873.91
2023-05-16T07:12:26.764Z,100879.03
2023-05-16T07:14:54.898Z,100883.25
2023-05-16T07:17:23.074Z,100874.44
2023-05-16T07:19:51.491Z,100878.75
2023-05-16T07:22:19.751Z,100880.47
2023-05-16T07:24:49.049Z,100882.09
2023-05-16T07:27:17.175Z,100884.72
2023-05-16T07:29:45.231Z,100884.72
2023-05-16T07:32:13.386Z,100886.44
2023-05-16T07:34:41.569Z,100884.63
2023-05-16T07:37:12.926Z,100888.00
2023-05-16T07:39:41.298Z,100892.34
2023-05-16T07:42:10.999Z,100886.09
2023-05-16T07:44:39.008Z,100885.13
2023-05-16T07:47:07.477Z,100888.53
2023-05-16T07:49:35.585Z,100886.75
2023-05-16T07:52:03.828Z,100889.31
2023-05-16T07:54:33.293Z,100890.13
2023-05-16T07:57:01.532Z,100883.91
2023-05-16T07:59:31.056Z,100896.03
2023-05-16T08:01:59.378Z,100909.00
2023-05-16T08:04:27.490Z,100903.72
2023-05-16T08:06:55.976Z,100894.94
2023-05-16T08:09:24.013Z,100899.25
2023-05-16T08:11:52.217Z,100892.84
2023-05-16T08:14:20.341Z,100894.16
2023-05-16T08:16:49.741Z,100901.69
2023-05-16T08:19:17.901Z,100905.31
2023-05-16T08:21:46.888Z,100898.16
2023-05-16T08:24:15.964Z,100892.72
2023-05-16T08:26:45.797Z,100899.53
2023-05-16T08:29:14.195Z,100901.16
2023-05-16T08:31:42.333Z,100904.56
2023-05-16T08:34:11.809Z,100897.56
2023-05-16T08:36:40.086Z,100899.34
2023-05-16T08:39:11.456Z,100900.13
2023-05-16T08:41:40.440Z,100897.38
2023-05-16T08:44:10.356Z,100895.50
2023-05-16T08:46:39.775Z,100902.19
2023-05-16T08:49:09.819Z,100897.53
2023-05-16T08:51:39.829Z,100896.50
2023-05-16T08:54:13.752Z,100897.34
2023-05-16T08:56:42.924Z,100889.19
2023-05-16T08:59:12.456Z,100897.75
2023-05-16T09:01:40.809Z,100897.91
2023-05-16T09:04:10.540Z,100888.88
2023-05-16T09:06:40.133Z,100886.50
2023-05-16T09:09:12.903Z,100888.97
2023-05-16T09:11:41.348Z,100889.47
2023-05-16T09:14:09.372Z,100885.06
2023-05-16T09:16:37.653Z,100882.69
2023-05-16T09:19:05.984Z,100888.84
2023-05-16T09:21:35.257Z,100889.31
2023-05-16T09:24:07.239Z,100900.69
2023-05-16T09:26:36.392Z,100898.28
2023-05-16T09:29:11.873Z,100883.16
2023-05-16T09:31:40.879Z,100880.13
2023-05-16T09:34:11.318Z,100875.72
2023-05-16T09:36:41.537Z,100876.47
2023-05-16T09:39:16.991Z,100883.69
2023-05-16T09:41:45.191Z,100878.09
2023-05-16T09:44:13.687Z,100889.88
2023-05-16T09:46:41.874Z,100890.59
2023-05-16T09:49:13.558Z,100881.56
2023-05-16T09:51:42.496Z,100881.97
2023-05-16T09:54:12.233Z,100880.03
2023-05-16T09:56:50.893Z,100883.00
2023-05-16T09:59:19.099Z,100887.25
2023-05-16T10:01:48.433Z,100886.94
2023-05-16T10:04:16.632Z,100881.13
2023-05-16T10:06:45.760Z,100882.59
2023-05-16T10:09:17.647Z,100891.72
2023-05-16T10:11:47.480Z,100889.78
2023-05-16T10:14:19.069Z,100886.97
2023-05-16T10:16:49.726Z,100884.78
2023-05-16T10:19:21.311Z,100884.78
2023-05-16T10:21:54.159Z,100882.97
2023-05-16T10:24:27.792Z,100890.69
2023-05-16T10:26:55.789Z,100884.94
2023-05-16T10:29:24.855Z,100881.81
2023-05-16T10:31:53.576Z,100887.31
2023-05-16T10:34:22.098Z,100874.91
2023-05-16T10:36:50.808Z,100882.56
2023-05-16T10:39:19.794Z,100879.09
2023-05-16T10:41:49.629Z,100879.09
2023-05-16T10:44:18.564Z,100883.19
2023-05-16T10:46:48.344Z,100885.91
2023-05-16T10:49:23.430Z,100892.25
2023-05-16T10:52:11.044Z,100890.59
2023-05-16T10:54:40.994Z,100878.78
2023-05-16T10:57:15.294Z,100887.94
2023-05-16T10:59:46.110Z,100889.47
2023-05-16T11:05:20.811Z,100884.72
2023-05-16T11:08:05.416Z,100879.22
2023-05-16T11:10:33.904Z,100884.47
2023-05-16T11:13:10.410Z,100877.91
2023-05-16T11:15:38.682Z,100885.34
2023-05-16T11:18:08.358Z,100880.34
2023-05-16T11:20:38.696Z,100885.03
2023-05-16T11:23:29.367Z,100874.84
2023-05-16T11:26:00.612Z,100871.31
2023-05-16T11:28:30.213Z,100872.00
2023-05-16T11:31:00.200Z,100877.53
2023-05-16T11:33:29.858Z,100869.03
2023-05-16T11:38:37.777Z,100872.16
2023-05-16T11:41:07.247Z,100870.03
2023-05-16T11:43:45.092Z,100870.22
2023-05-16T11:46:13.907Z,100873.09
2023-05-16T11:48:42.655Z,100872.88
2023-05-16T11:51:11.105Z,100873.00
2023-05-16T11:53:39.707Z,100870.09
2023-05-16T11:56:09.949Z,100865.53
2023-05-16T11:58:38.509Z,100862.75
2023-05-16T12:01:08.559Z,100864.97
2023-05-16T12:03:37.134Z,100864.31
2023-05-16T12:06:05.824Z,100866.91
2023-05-16T12:08:34.362Z,100886.94
2023-05-16T12:11:02.491Z,100877.16
2023-05-16T12:13:30.748Z,100876.91
2023-05-16T12:15:59.302Z,100873.34
2023-05-16T12:18:28.922Z,100864.75
2023-05-16T12:20:57.104Z,100864.88
2023-05-16T12:23:29.363Z,100860.78
2023-05-16T12:25:58.449Z,100862.41
2023-05-16T12:28:26.682Z,100853.88
2023-05-16T12:30:54.817Z,100847.59
2023-05-16T12:33:23.006Z,100831.38
2023-05-16T12:35:54.618Z,100830.41
2023-05-16T12:38:26.444Z,100837.59
2023-05-16T12:41:00.106Z,100847.94
2023-05-16T12:43:28.656Z,100847.56
2023-05-16T12:45:58.405Z,100853.03
2023-05-16T12:48:35.766Z,100853.75
2023-05-16T12:51:24.103Z,100854.84
2023-05-16T12:54:08.759Z,100842.66
2023-05-16T12:56:41.060Z,100849.06
2023-05-16T12:59:09.598Z,100854.72
2023-05-16T13:01:37.898Z,100849.94
2023-05-16T13:04:06.411Z,100849.22
2023-05-16T13:06:56.655Z,100839.00
2023-05-16T13:09:28.364Z,100844.16
2023-05-16T13:11:59.770Z,100839.22
2023-05-16T13:14:28.053Z,100844.31
2023-05-16T13:16:56.224Z,100839.13
2023-05-16T13:19:24.509Z,100846.81
2023-05-16T13:21:54.874Z,100835.16
2023-05-16T13:24:22.918Z,100831.31
2023-05-16T13:26:51.021Z,100831.31
2023-05-16T13:29:19.026Z,100831.50
2023-05-16T13:31:47.226Z,100831.00
2023-05-16T13:34:15.189Z,100835.22
2023-05-16T13:36:53.972Z,100831.25
2023-05-16T13:39:24.418Z,100825.41
2023-05-16T13:41:52.734Z,100823.34
2023-05-16T13:44:22.363Z,100824.94
2023-05-16T13:46:50.750Z,100812.91
2023-05-16T13:49:19.313Z,100820.97
2023-05-16T13:51:47.947Z,100818.88
2023-05-16T13:54:16.276Z,100826.59
2023-05-16T13:56:45.976Z,100823.66
2023-05-16T13:59:20.205Z,100839.31
2023-05-16T14:01:56.322Z,100835.50
2023-05-16T14:04:26.284Z,100842.66
2023-05-16T14:06:55.413Z,100843.41
2023-05-16T14:09:23.580Z,100841.97
2023-05-16T14:11:53.007Z,100827.44
2023-05-16T14:14:21.297Z,100832.25
2023-05-16T14:16:49.615Z,100838.56
2023-05-16T14:19:19.634Z,100834.16
2023-05-16T14:21:48.003Z,100839.72
2023-05-16T14:24:16.089Z,100841.63
2023-05-16T14:26:44.286Z,100844.53
2023-05-16T14:29:14.179Z,100835.53
2023-05-16T14:31:42.477Z,100838.16
2023-05-16T14:34:10.612Z,100829.06
2023-05-16T14:36:38.783Z,100825.59
2023-05-16T14:39:07.271Z,100836.66
2023-05-16T14:41:35.403Z,100832.47
2023-05-16T14:44:03.538Z,100841.19
2023-05-16T14:46:33.817Z,100834.78
2023-05-16T14:49:02.013Z,100840.25
2023-05-16T14:51:30.281Z,100831.47
2023-05-16T14:53:58.351Z,100832.25
2023-05-16T14:56:28.137Z,100820.06
2023-05-16T14:58:56.390Z,100816.06
2023-05-16T15:01:24.591Z,100817.41
2023-05-16T15:03:56.333Z,100809.34
2023-05-16T15:06:25.252Z,100818.34
2023-05-16T15:08:53.339Z,100825.13
2023-05-16T15:11:21.850Z,100822.63
2023-05-16T15:13:50.030Z,100821.78
2023-05-16T15:16:18.295Z,100815.13
2023-05-16T15:18:46.527Z,100826.72
2023-05-16T15:21:16.270Z,100817.84
2023-05-16T15:23:44.389Z,100833.09
2023-05-16T15:26:12.592Z,100836.94
2023-05-16T15:28:40.711Z,100841.03
2023-05-16T15:31:08.973Z,100837.09
2023-05-16T15:33:37.437Z,100838.00
2023-05-16T15:36:06.190Z,100836.47
2023-05-16T15:38:36.491Z,100835.38
2023-05-16T15:41:18.709Z,100834.66
2023-05-16T15:43:54.155Z,100836.00
2023-05-16T15:46:22.265Z,100831.31
2023-05-16T15:48:50.552Z,100842.91
2023-05-16T15:51:19.341Z,100842.94
2023-05-16T15:53:49.113Z,100837.16
2023-05-16T15:56:17.210Z,100836.47
2023-05-16T15:58:46.769Z,100834.69
2023-05-16T16:01:15.089Z,100836.41
2023-05-16T16:03:43.246Z,100845.09
2023-05-16T16:06:11.728Z,100845.66
2023-05-16T16:08:39.728Z,100852.13
2023-05-16T16:11:09.175Z,100851.06
2023-05-16T16:13:37.982Z,100844.38
2023-05-16T16:16:07.157Z,100844.38
2023-05-16T16:18:35.696Z,100846.56
2023-05-16T16:21:03.987Z,100853.34
2023-05-16T16:23:32.897Z,100864.44
2023-05-16T16:26:01.403Z,100863.22
2023-05-16T16:28:30.756Z,100869.81
2023-05-16T16:30:58.914Z,100870.97
2023-05-16T16:33:27.168Z,100875.25
2023-05-16T16:35:55.754Z,100874.78
2023-05-16T16:38:23.795Z,100868.13
2023-05-16T16:40:51.822Z,100863.91
2023-05-16T16:43:19.940Z,100873.16
2023-05-16T16:45:49.673Z,100866.84
2023-05-16T16:48:17.837Z,100874.63
2023-05-16T16:50:46.190Z,100876.59
2023-05-16T16:53:14.412Z,100875.28
2023-05-16T16:55:42.515Z,100864.69
2023-05-16T16:58:10.750Z,100861.09
2023-05-16T17:00:38.904Z,100859.47
2023-05-16T17:03:08.478Z,100863.59
2023-05-16T17:05:36.580Z,100862.13
2023-05-16T17:08:04.988Z,100868.78
2023-05-16T17:10:33.105Z,100870.50
2023-05-16T17:13:07.133Z,100870.50
2023-05-16T17:15:35.690Z,100867.19
2023-05-16T17:18:05.133Z,100870.81
2023-05-16T17:20:34.733Z,100862.13
2023-05-16T17:23:03.064Z,100867.44
2023-05-16T17:25:31.413Z,100865.72
2023-05-16T17:27:59.717Z,100866.88
2023-05-16T17:30:27.758Z,100860.66
2023-05-16T17:32:56.055Z,100871.16
2023-05-16T17:35:24.305Z,100865.97
2023-05-16T17:37:53.816Z,100868.06
2023-05-16T17:40:21.991Z,100865.41
2023-05-16T17:42:51.315Z,100867.94
2023-05-16T17:45:19.592Z,100873.75
2023-05-16T17:47:47.863Z,100881.00
2023-05-16T17:50:16.056Z,100875.88
2023-05-16T17:52:44.667Z,100869.28
2023-05-16T17:55:14.102Z,100878.28
2023-05-16T17:57:42.514Z,100878.41
2023-05-16T18:00:11.454Z,100877.06
2023-05-16T18:02:39.885Z,100883.50
2023-05-16T18:05:08.612Z,100880.34
2023-05-16T18:07:36.724Z,100877.81
2023-05-16T18:10:05.049Z,100885.81
2023-05-16T18:12:34.512Z,100886.75
2023-05-16T18:15:02.743Z,100897.66
2023-05-16T18:17:30.801Z,100896.13
2023-05-16T18:19:59.506Z,100884.97
2023-05-16T18:22:28.941Z,100887.72
2023-05-16T18:24:57.071Z,100897.66
2023-05-16T18:27:25.214Z,100891.63
2023-05-16T18:29:54.680Z,100887.53
2023-05-16T18:32:22.877Z,100894.91
2023-05-16T18:34:51.362Z,100903.19
2023-05-16T18:37:19.448Z,100910.19
2023-05-16T18:39:49.185Z,100907.53
2023-05-16T18:42:18.694Z,100911.19
2023-05-16T18:44:47.363Z,100908.75
2023-05-16T18:47:16.704Z,100910.72
2023-05-16T18:49:44.959Z,100909.22
2023-05-16T18:52:13.016Z,100921.78
2023-05-16T18:54:41.247Z,100917.53
2023-05-16T18:57:11.416Z,100923.94
2023-05-16T18:59:39.597Z,100931.81
2023-05-16T19:02:07.632Z,100920.44
2023-05-16T19:04:37.261Z,100926.66
2023-05-16T19:07:07.856Z,100925.94
2023-05-16T19:09:37.370Z,100927.03
2023-05-16T19:12:06.220Z,100931.72
2023-05-16T19:14:34.414Z,100935.66
2023-05-16T19:17:02.507Z,100944.88
2023-05-16T19:19:31.205Z,100938.16
2023-05-16T19:22:00.671Z,100943.75
2023-05-16T19:24:28.784Z,100941.44
2023-05-16T19:26:56.861Z,100949.66
2023-05-16T19:29:25.108Z,100951.75
2023-05-16T19:31:53.268Z,100947.63
2023-05-16T19:34:21.456Z,100958.25
2023-05-16T19:36:49.549Z,100957.34
2023-05-16T19:39:18.973Z,100961.88
2023-05-16T19:41:51.631Z,100962.94
2023-05-16T19:44:20.569Z,100971.16
2023-05-16T19:46:48.642Z,100972.28
2023-05-16T19:49:19.515Z,100985.63
2023-05-16T19:51:48.380Z,100978.72
2023-05-16T19:54:16.418Z,100986.81
2023-05-16T19:56:45.844Z,100990.47
2023-05-16T19:59:13.982Z,101003.78
2023-05-16T20:01:42.080Z,101000.47
2023-05-16T20:04:10.341Z,100994.50
2023-05-16T20:06:38.721Z,101006.88
2023-05-16T20:09:07.307Z,101000.00
2023-05-16T20:11:35.506Z,101003.63
2023-05-16T20:14:04.808Z,101007.16
2023-05-16T20:16:32.916Z,101015.16
2023-05-16T20:19:01.084Z,101023.19
2023-05-16T20:21:29.284Z,101011.06
2023-05-16T20:23:57.366Z,101018.22
2023-05-16T20:26:25.869Z,101025.44
2023-05-16T20:28:53.986Z,101025.59
2023-05-16T20:31:23.436Z,101032.78
2023-05-16T20:33:51.547Z,101035.63
2023-05-16T20:36:19.765Z,101038.41
2023-05-16T20:38:47.824Z,101038.53
2023-05-16T20:41:15.926Z,101044.78
2023-05-16T20:43:44.687Z,101042.28
2023-05-16T20:46:12.817Z,101047.56
2023-05-16T20:48:42.233Z,101052.91
2023-05-16T20:51:10.387Z,101062.66
2023-05-16T20:53:38.555Z,101053.13
2023-05-16T20:56:06.966Z,101054.91
2023-05-16T20:58:35.179Z,101052.25
2023-05-16T21:01:03.686Z,101048.78
2023-05-16T21:03:31.806Z,101046.31
2023-05-16T21:06:01.382Z,101061.38
2023-05-16T21:08:29.445Z,101068.53
2023-05-16T21:10:57.516Z,101057.28
2023-05-16T21:13:25.842Z,101068.72
2023-05-16T21:15:53.928Z,101068.84
2023-05-16T21:18:22.003Z,101067.28
2023-05-16T21:20:50.120Z,101072.66
2023-05-16T21:23:19.536Z,101080.66
2023-05-16T21:25:47.619Z,101085.16
2023-05-16T21:28:15.676Z,101080.03
2023-05-16T21:30:43.767Z,101082.66
2023-05-16T21:33:11.844Z,101085.38
2023-05-16T21:35:39.977Z,101084.53
2023-05-16T21:38:08.088Z,101088.00
2023-05-16T21:40:37.511Z,101091.50
2023-05-16T21:43:05.573Z,101097.53
2023-05-16T21:45:33.724Z,101093.13
2023-05-16T21:48:01.882Z,101087.84
2023-05-16T21:50:30.171Z,101092.19
2023-05-16T21:52:58.273Z,101086.84
2023-05-16T21:55:27.134Z,101092.94
2023-05-16T21:57:56.650Z,101087.69
2023-05-16T22:00:24.754Z,101086.78
2023-05-16T22:02:52.874Z,101092.94
2023-05-16T22:05:21.012Z,101088.59
2023-05-16T22:07:49.189Z,101094.75
2023-05-16T22:10:18.549Z,101092.19
2023-05-16T22:12:46.592Z,101088.78
2023-05-16T22:15:16.058Z,101100.19
2023-05-16T22:17:44.208Z,101104.63
2023-05-16T22:20:12.973Z,101106.38
2023-05-16T22:22:41.436Z,101106.41
2023-05-16T22:25:09.994Z,101102.97
2023-05-16T22:27:37.992Z,101110.03
2023-05-16T22:30:06.950Z,101110.09
2023-05-16T22:32:36.279Z,101111.91
2023-05-16T22:35:04.524Z,101108.47
2023-05-16T22:37:32.554Z,101104.13
2023-05-16T22:40:00.734Z,101103.28
2023-05-16T22:42:28.819Z,101107.69
2023-05-16T22:44:57.149Z,101103.34
2023-05-16T22:47:25.278Z,101111.28
2023-05-16T22:49:54.658Z,101106.03
2023-05-16T22:52:22.989Z,101102.53
2023-05-16T22:54:51.089Z,101099.03
2023-05-16T22:57:19.124Z,101100.75
2023-05-16T22:59:47.318Z,101095.47
2023-05-16T23:02:15.383Z,101091.91
2023-05-16T23:04:43.589Z,101090.13
2023-05-16T23:07:13.062Z,101083.16
2023-05-16T23:09:41.141Z,101092.81
2023-05-16T23:12:09.951Z,101097.22
2023-05-16T23:14:38.089Z,101105.06
2023-05-16T23:17:06.614Z,101099.88
2023-05-16T23:19:34.910Z,101095.53
2023-05-16T23:22:03.477Z,101097.28
2023-05-16T23:24:32.955Z,101094.66
2023-05-16T23:27:01.008Z,101106.91
2023-05-16T23:29:29.148Z,101106.03
2023-05-16T23:31:57.228Z,101109.50
2023-05-16T23:34:25.488Z,101094.66
2023-05-16T23:36:53.539Z,101092.91
2023-05-16T23:39:22.085Z,101102.56
2023-05-16T23:41:51.418Z,101102.59
2023-05-16T23:44:19.457Z,101103.47
2023-05-16T23:46:47.517Z,101103.56
2023-05-16T23:49:15.780Z,101102.69
2023-05-16T23:51:56.203Z,101093.13
2023-05-16T23:54:26.181Z,101103.63
2023-05-16T23:56:55.558Z,101095.81
2023-05-16T23:59:23.672Z,101097.59
